createdAt,value
2023-04-08T00:03:52.948Z,3.13
2023-04-08T00:08:55.195Z,4.17
2023-04-08T00:13:58.117Z,5.50
2023-04-08T00:19:02.071Z,4.83
2023-04-08T00:24:04.811Z,4.13
2023-04-08T00:29:06.827Z,3.03
2023-04-08T00:34:10.297Z,4.27
2023-04-08T00:39:12.598Z,2.53
2023-04-08T00:44:14.361Z,2.70
2023-04-08T00:49:18.425Z,2.17
2023-04-08T00:54:20.226Z,4.23
2023-04-08T00:59:22.740Z,3.07
2023-04-08T01:04:33.363Z,3.60
2023-04-08T01:09:39.645Z,3.17
2023-04-08T01:14:46.271Z,3.17
2023-04-08T01:19:50.855Z,3.50
2023-04-08T01:25:00.825Z,6.50
2023-04-08T01:30:06.511Z,5.20
2023-04-08T01:35:10.981Z,5.93
2023-04-08T01:40:14.016Z,4.67
2023-04-08T01:45:17.996Z,3.77
2023-04-08T01:50:20.912Z,6.27
2023-04-08T01:55:23.348Z,5.00
2023-04-08T02:00:31.211Z,4.57
2023-04-08T02:05:33.200Z,3.83
2023-04-08T02:10:35.472Z,5.83
2023-04-08T02:15:44.168Z,6.00
2023-04-08T02:20:49.749Z,6.03
2023-04-08T02:25:54.225Z,4.37
2023-04-08T02:31:00.890Z,7.47
2023-04-08T02:36:04.407Z,4.97
2023-04-08T02:41:06.810Z,4.93
2023-04-08T02:46:12.790Z,5.00
2023-04-08T02:51:15.166Z,4.60
2023-04-08T02:56:17.446Z,5.20
2023-04-08T03:01:21.007Z,5.73
2023-04-08T03:06:23.336Z,5.93
2023-04-08T03:11:25.177Z,7.00
2023-04-08T03:16:28.787Z,7.80
2023-04-08T03:21:32.002Z,7.47
2023-04-08T03:26:34.158Z,7.40
2023-04-08T03:31:37.829Z,7.07
2023-04-08T03:36:39.978Z,6.10
2023-04-08T03:41:42.434Z,6.53
2023-04-08T03:46:45.917Z,4.80
2023-04-08T03:51:47.894Z,7.70
2023-04-08T03:56:51.551Z,7.00
2023-04-08T04:01:55.188Z,6.73
2023-04-08T04:06:57.465Z,5.70
2023-04-08T04:11:59.933Z,5.43
2023-04-08T04:17:03.631Z,4.70
2023-04-08T04:22:05.591Z,5.07
2023-04-08T04:27:07.791Z,4.93
2023-04-08T04:32:11.683Z,4.13
2023-04-08T04:37:13.913Z,5.43
2023-04-08T04:42:16.152Z,6.73
2023-04-08T04:47:19.958Z,7.30
2023-04-08T04:52:21.983Z,9.90
2023-04-08T04:57:24.250Z,13.83
2023-04-08T05:02:27.997Z,11.07
2023-04-08T05:07:30.546Z,7.97
2023-04-08T05:12:33.033Z,8.67
2023-04-08T05:17:36.671Z,10.13
2023-04-08T05:22:39.417Z,10.40
2023-04-08T05:27:41.824Z,16.27
2023-04-08T05:32:45.527Z,13.23
2023-04-08T05:37:47.792Z,9.90
2023-04-08T05:42:50.227Z,9.03
2023-04-08T05:47:54.019Z,10.40
2023-04-08T05:52:56.094Z,12.07
2023-04-08T05:57:57.959Z,11.30
2023-04-08T06:03:01.674Z,9.30
2023-04-08T06:08:03.983Z,10.87
2023-04-08T06:13:06.420Z,11.70
2023-04-08T06:18:09.970Z,10.47
2023-04-08T06:23:12.118Z,8.17
2023-04-08T06:28:14.470Z,7.93
2023-04-08T06:33:18.164Z,6.80
2023-04-08T06:38:20.309Z,6.20
2023-04-08T06:43:22.201Z,7.80
2023-04-08T06:48:28.755Z,9.30
2023-04-08T06:53:31.536Z,5.77
2023-04-08T06:58:33.705Z,5.53
2023-04-08T07:03:37.302Z,4.37
2023-04-08T07:08:40.018Z,3.50
2023-04-08T07:13:42.150Z,6.83
2023-04-08T07:18:46.757Z,7.50
2023-04-08T07:23:48.938Z,5.63
2023-04-08T07:28:52.052Z,4.53
2023-04-08T07:33:56.387Z,3.33
2023-04-08T07:38:58.487Z,4.63
2023-04-08T07:44:00.311Z,12.57
2023-04-08T07:49:04.319Z,4.03
2023-04-08T07:54:06.264Z,3.07
2023-04-08T07:59:08.398Z,2.90
2023-04-08T08:04:12.285Z,2.03
2023-04-08T08:09:14.485Z,2.00
2023-04-08T08:14:16.870Z,6.03
2023-04-08T08:19:20.610Z,6.07
2023-04-08T08:24:22.787Z,7.57
2023-04-08T08:29:25.236Z,6.30
2023-04-08T08:34:28.835Z,6.93
2023-04-08T08:39:31.018Z,5.10
2023-04-08T08:44:33.689Z,8.77
2023-04-08T08:49:37.176Z,5.17
2023-04-08T08:54:39.573Z,5.03
2023-04-08T08:59:41.687Z,4.17
2023-04-08T09:04:58.904Z,5.90
2023-04-08T09:10:01.607Z,5.07
2023-04-08T09:15:08.502Z,9.40
2023-04-08T09:20:15.352Z,5.00
2023-04-08T09:25:25.676Z,4.97
2023-04-08T09:30:29.225Z,4.23
2023-04-08T09:35:33.111Z,4.57
2023-04-08T09:40:37.064Z,3.97
2023-04-08T09:45:42.977Z,3.40
2023-04-08T09:50:51.524Z,4.30
2023-04-08T09:55:57.657Z,4.10
2023-04-08T10:01:00.675Z,5.10
2023-04-08T10:06:05.156Z,4.57
2023-04-08T10:11:07.397Z,5.13
2023-04-08T10:16:27.640Z,3.43
2023-04-08T10:21:48.254Z,4.67
2023-04-08T10:26:50.466Z,3.63
2023-04-08T10:31:53.124Z,5.40
2023-04-08T10:36:59.150Z,4.07
2023-04-08T10:42:04.338Z,5.17
2023-04-08T10:47:06.792Z,5.07
2023-04-08T10:52:11.745Z,5.00
2023-04-08T10:57:14.475Z,5.07
2023-04-08T11:02:17.093Z,3.87
2023-04-08T11:07:22.344Z,5.60
2023-04-08T11:12:28.890Z,4.07
2023-04-08T11:17:34.115Z,4.73
2023-04-08T11:22:37.927Z,5.13
2023-04-08T11:27:40.870Z,4.53
2023-04-08T11:32:43.473Z,4.33
2023-04-08T11:37:50.155Z,3.83
2023-04-08T11:42:53.054Z,3.90
2023-04-08T11:47:55.514Z,3.10
2023-04-08T11:53:00.043Z,3.20
2023-04-08T11:58:05.259Z,3.70
2023-04-08T12:03:07.924Z,4.47
2023-04-08T12:08:11.905Z,5.13
2023-04-08T12:13:14.198Z,4.90
2023-04-08T12:18:16.569Z,8.70
2023-04-08T12:23:20.372Z,4.37
2023-04-08T12:28:22.952Z,4.90
2023-04-08T12:33:24.890Z,5.63
2023-04-08T12:38:28.621Z,5.80
2023-04-08T12:43:32.881Z,6.57
2023-04-08T12:48:34.850Z,7.20
2023-04-08T12:53:38.395Z,6.97
2023-04-08T12:58:40.275Z,8.63
2023-04-08T13:03:45.024Z,7.83
2023-04-08T13:08:50.540Z,8.37
2023-04-08T13:13:53.079Z,7.00
2023-04-08T13:18:55.399Z,6.93
2023-04-08T13:23:59.222Z,5.63
2023-04-08T13:29:01.218Z,5.37
2023-04-08T13:34:03.370Z,7.03
2023-04-08T13:39:07.203Z,8.10
2023-04-08T13:44:09.525Z,7.67
2023-04-08T13:49:12.204Z,7.33
2023-04-08T13:54:15.674Z,8.30
2023-04-08T13:59:17.804Z,9.07
2023-04-08T14:04:20.625Z,8.00
2023-04-08T14:09:24.411Z,7.60
2023-04-08T14:14:26.724Z,9.37
2023-04-08T14:19:28.844Z,11.30
2023-04-08T14:24:32.152Z,9.73
2023-04-08T14:29:34.291Z,12.30
2023-04-08T14:34:37.616Z,10.20
2023-04-08T14:39:41.070Z,9.57
2023-04-08T14:44:44.310Z,9.30
2023-04-08T14:49:46.449Z,14.73
2023-04-08T14:54:50.120Z,13.80
2023-04-08T14:59:53.092Z,12.73
2023-04-08T15:04:55.175Z,9.20
2023-04-08T15:09:58.922Z,6.27
2023-04-08T15:15:01.056Z,5.87
2023-04-08T15:20:02.915Z,7.00
2023-04-08T15:25:07.402Z,8.90
2023-04-08T15:30:12.311Z,7.10
2023-04-08T15:35:14.786Z,6.33
2023-04-08T15:40:25.950Z,7.70
2023-04-08T15:45:28.672Z,7.67
2023-04-08T15:50:31.568Z,10.73
2023-04-08T15:55:39.382Z,10.73
2023-04-08T16:00:41.901Z,12.27
2023-04-08T16:05:44.421Z,8.10
2023-04-08T16:10:48.127Z,11.53
2023-04-08T16:15:50.934Z,10.03
2023-04-08T16:20:53.254Z,8.33
2023-04-08T16:25:56.674Z,9.90
2023-04-08T16:30:59.308Z,10.83
2023-04-08T16:36:04.558Z,6.87
2023-04-08T16:41:10.403Z,5.90
2023-04-08T16:46:13.532Z,9.47
2023-04-08T16:51:15.698Z,6.07
2023-04-08T16:56:19.376Z,7.20
2023-04-08T17:01:21.416Z,6.20
2023-04-08T17:06:24.103Z,9.13
2023-04-08T17:11:27.864Z,9.57
2023-04-08T17:16:31.456Z,9.37
2023-04-08T17:21:33.769Z,9.10
2023-04-08T17:26:37.576Z,9.37
2023-04-08T17:31:40.297Z,8.60
2023-04-08T17:36:43.197Z,10.40
2023-04-08T17:41:47.929Z,11.33
2023-04-08T17:46:50.379Z,12.57
2023-04-08T17:51:52.279Z,14.80
2023-04-08T17:56:56.354Z,12.83
2023-04-08T18:01:58.566Z,13.83
2023-04-08T18:07:04.103Z,14.00
2023-04-08T18:12:07.763Z,12.87
2023-04-08T18:17:09.946Z,14.97
2023-04-08T18:22:12.400Z,14.20
2023-04-08T18:27:16.852Z,11.43
2023-04-08T18:32:19.252Z,11.83
2023-04-08T18:37:22.343Z,13.23
2023-04-08T18:42:26.138Z,18.93
2023-04-08T18:47:28.729Z,18.50
2023-04-08T18:52:32.339Z,22.13
2023-04-08T18:57:36.236Z,21.43
2023-04-08T19:02:39.138Z,23.33
2023-04-08T19:07:41.628Z,17.33
2023-04-08T19:12:46.761Z,15.07
2023-04-08T19:17:48.985Z,16.33
2023-04-08T19:22:51.641Z,16.10
2023-04-08T19:27:55.019Z,16.83
2023-04-08T19:32:58.656Z,21.20
2023-04-08T19:38:01.098Z,20.93
2023-04-08T19:43:04.821Z,22.50
2023-04-08T19:48:37.905Z,21.83
2023-04-08T19:53:56.667Z,17.53
2023-04-08T19:59:06.989Z,22.23
2023-04-08T20:04:11.928Z,18.37
2023-04-08T20:09:16.192Z,21.53
2023-04-08T20:14:21.472Z,20.17
2023-04-08T20:19:33.589Z,22.97
2023-04-08T20:24:37.738Z,22.30
2023-04-08T20:29:43.117Z,22.67
2023-04-08T20:34:46.814Z,22.43
2023-04-08T20:39:58.141Z,20.87
2023-04-08T20:45:02.461Z,21.17
2023-04-08T20:50:05.250Z,22.80
2023-04-08T20:55:09.363Z,20.60
2023-04-08T21:00:16.284Z,23.83
2023-04-08T21:05:18.887Z,23.37
2023-04-08T21:10:24.703Z,28.00
2023-04-08T21:15:29.292Z,26.33
2023-04-08T21:20:31.931Z,30.57
2023-04-08T21:25:44.149Z,33.33
2023-04-08T21:30:49.057Z,38.57
2023-04-08T21:35:51.883Z,35.33
2023-04-08T21:40:55.028Z,35.10
2023-04-08T21:45:59.640Z,39.47
2023-04-08T21:51:03.269Z,39.77
2023-04-08T21:56:08.240Z,41.07
2023-04-08T22:06:14.654Z,41.47
2023-04-08T22:11:24.293Z,39.60
2023-04-08T22:16:26.647Z,35.03
2023-04-08T22:21:30.352Z,35.80
2023-04-08T22:26:32.501Z,38.17
2023-04-08T22:31:34.726Z,34.30
2023-04-08T22:36:38.780Z,32.63
2023-04-08T22:41:41.600Z,34.43
2023-04-08T22:46:43.792Z,31.37
2023-04-08T22:51:47.426Z,31.57
2023-04-08T22:56:49.805Z,33.27
2023-04-08T23:01:52.314Z,33.37
2023-04-08T23:06:56.107Z,39.87
2023-04-08T23:11:58.740Z,44.93
2023-04-08T23:17:01.355Z,111.77
2023-04-08T23:22:06.030Z,77.27
2023-04-08T23:27:08.992Z,74.30
2023-04-08T23:32:11.135Z,71.00
2023-04-08T23:37:14.485Z,52.77
2023-04-08T23:42:16.603Z,54.70
2023-04-08T23:47:18.510Z,39.50
2023-04-08T23:52:22.137Z,37.30
2023-04-08T23:57:24.220Z,40.00
